sensor_id;sensor_type;location;lat;lon;timestamp;P1;durP1;ratioP1;P2;durP2;ratioP2
65998;SDS011;52766;56.008;37.440;2023-05-07T00:01:56;5.82;;;2.70;;
65998;SDS011;52766;56.008;37.440;2023-05-07T00:04:22;6.10;;;2.75;;
65998;SDS011;52766;56.008;37.440;2023-05-07T00:06:49;6.18;;;2.83;;
65998;SDS011;52766;56.008;37.440;2023-05-07T00:09:15;6.32;;;2.47;;
65998;SDS011;52766;56.008;37.440;2023-05-07T00:11:42;8.95;;;2.72;;
65998;SDS011;52766;56.008;37.440;2023-05-07T00:14:08;6.68;;;2.55;;
65998;SDS011;52766;56.008;37.440;2023-05-07T00:16:34;4.20;;;2.00;;
65998;SDS011;52766;56.008;37.440;2023-05-07T00:19:00;4.47;;;2.10;;
65998;SDS011;52766;56.008;37.440;2023-05-07T00:21:25;7.30;;;2.35;;
65998;SDS011;52766;56.008;37.440;2023-05-07T00:23:52;4.13;;;2.20;;
65998;SDS011;52766;56.008;37.440;2023-05-07T00:26:19;6.45;;;2.85;;
65998;SDS011;52766;56.008;37.440;2023-05-07T00:28:47;4.38;;;2.28;;
65998;SDS011;52766;56.008;37.440;2023-05-07T00:31:13;9.65;;;3.38;;
65998;SDS011;52766;56.008;37.440;2023-05-07T00:33:39;4.93;;;2.30;;
65998;SDS011;52766;56.008;37.440;2023-05-07T00:36:05;5.00;;;1.85;;
65998;SDS011;52766;56.008;37.440;2023-05-07T00:38:31;5.90;;;2.45;;
65998;SDS011;52766;56.008;37.440;2023-05-07T00:40:57;7.70;;;2.38;;
65998;SDS011;52766;56.008;37.440;2023-05-07T00:43:23;3.05;;;1.52;;
65998;SDS011;52766;56.008;37.440;2023-05-07T00:45:49;7.90;;;2.95;;
65998;SDS011;52766;56.008;37.440;2023-05-07T00:48:15;4.78;;;1.83;;
65998;SDS011;52766;56.008;37.440;2023-05-07T00:50:42;4.97;;;1.77;;
65998;SDS011;52766;56.008;37.440;2023-05-07T00:53:08;5.72;;;2.35;;
65998;SDS011;52766;56.008;37.440;2023-05-07T00:55:35;4.50;;;2.28;;
65998;SDS011;52766;56.008;37.440;2023-05-07T00:58:02;4.60;;;2.10;;
65998;SDS011;52766;56.008;37.440;2023-05-07T01:00:28;3.72;;;1.90;;
65998;SDS011;52766;56.008;37.440;2023-05-07T01:02:55;3.97;;;3.05;;
65998;SDS011;52766;56.008;37.440;2023-05-07T01:05:20;6.05;;;2.30;;
65998;SDS011;52766;56.008;37.440;2023-05-07T01:07:49;5.30;;;2.10;;
65998;SDS011;52766;56.008;37.440;2023-05-07T01:10:15;4.53;;;2.05;;
65998;SDS011;52766;56.008;37.440;2023-05-07T01:12:42;4.53;;;2.03;;
65998;SDS011;52766;56.008;37.440;2023-05-07T01:15:09;5.13;;;2.03;;
65998;SDS011;52766;56.008;37.440;2023-05-07T01:17:37;6.20;;;2.13;;
65998;SDS011;52766;56.008;37.440;2023-05-07T01:20:07;4.85;;;2.03;;
65998;SDS011;52766;56.008;37.440;2023-05-07T01:22:37;7.75;;;3.17;;
65998;SDS011;52766;56.008;37.440;2023-05-07T01:25:06;2.88;;;1.60;;
65998;SDS011;52766;56.008;37.440;2023-05-07T01:27:34;3.55;;;1.58;;
65998;SDS011;52766;56.008;37.440;2023-05-07T01:30:03;3.88;;;2.15;;
65998;SDS011;52766;56.008;37.440;2023-05-07T01:32:33;7.05;;;2.22;;
65998;SDS011;52766;56.008;37.440;2023-05-07T01:35:03;4.75;;;2.22;;
65998;SDS011;52766;56.008;37.440;2023-05-07T01:37:37;4.70;;;1.98;;
65998;SDS011;52766;56.008;37.440;2023-05-07T01:40:04;5.13;;;2.30;;
65998;SDS011;52766;56.008;37.440;2023-05-07T01:42:31;6.68;;;2.35;;
65998;SDS011;52766;56.008;37.440;2023-05-07T01:44:57;5.50;;;2.30;;
65998;SDS011;52766;56.008;37.440;2023-05-07T01:47:23;4.78;;;2.47;;
65998;SDS011;52766;56.008;37.440;2023-05-07T01:49:50;5.10;;;2.03;;
65998;SDS011;52766;56.008;37.440;2023-05-07T01:52:16;4.50;;;1.35;;
65998;SDS011;52766;56.008;37.440;2023-05-07T01:54:44;2.92;;;2.03;;
65998;SDS011;52766;56.008;37.440;2023-05-07T01:57:10;4.43;;;2.00;;
65998;SDS011;52766;56.008;37.440;2023-05-07T01:59:36;5.13;;;1.90;;
65998;SDS011;52766;56.008;37.440;2023-05-07T02:02:09;5.03;;;1.95;;
65998;SDS011;52766;56.008;37.440;2023-05-07T02:04:38;4.13;;;1.92;;
65998;SDS011;52766;56.008;37.440;2023-05-07T02:07:06;5.05;;;2.13;;
65998;SDS011;52766;56.008;37.440;2023-05-07T02:09:32;4.22;;;1.90;;
65998;SDS011;52766;56.008;37.440;2023-05-07T02:11:57;4.47;;;1.85;;
65998;SDS011;52766;56.008;37.440;2023-05-07T02:14:25;4.93;;;2.22;;
65998;SDS011;52766;56.008;37.440;2023-05-07T02:16:55;6.10;;;2.53;;
65998;SDS011;52766;56.008;37.440;2023-05-07T02:19:21;4.03;;;1.67;;
65998;SDS011;52766;56.008;37.440;2023-05-07T02:21:47;3.15;;;1.75;;
65998;SDS011;52766;56.008;37.440;2023-05-07T02:24:13;3.90;;;1.83;;
65998;SDS011;52766;56.008;37.440;2023-05-07T02:26:40;3.88;;;1.77;;
65998;SDS011;52766;56.008;37.440;2023-05-07T02:29:07;5.05;;;1.90;;
65998;SDS011;52766;56.008;37.440;2023-05-07T02:31:34;5.63;;;1.95;;
65998;SDS011;52766;56.008;37.440;2023-05-07T02:34:00;6.15;;;3.63;;
65998;SDS011;52766;56.008;37.440;2023-05-07T02:36:26;4.03;;;1.95;;
65998;SDS011;52766;56.008;37.440;2023-05-07T02:39:00;6.70;;;2.58;;
65998;SDS011;52766;56.008;37.440;2023-05-07T02:41:28;4.65;;;1.85;;
65998;SDS011;52766;56.008;37.440;2023-05-07T02:43:55;6.13;;;2.42;;
65998;SDS011;52766;56.008;37.440;2023-05-07T02:46:21;2.03;;;1.75;;
65998;SDS011;52766;56.008;37.440;2023-05-07T02:48:56;3.03;;;1.40;;
65998;SDS011;52766;56.008;37.440;2023-05-07T02:51:22;4.97;;;1.98;;
65998;SDS011;52766;56.008;37.440;2023-05-07T02:53:49;3.42;;;1.80;;
65998;SDS011;52766;56.008;37.440;2023-05-07T02:56:15;1.42;;;0.80;;
65998;SDS011;52766;56.008;37.440;2023-05-07T02:58:42;3.42;;;1.80;;
65998;SDS011;52766;56.008;37.440;2023-05-07T03:01:09;4.38;;;1.88;;
65998;SDS011;52766;56.008;37.440;2023-05-07T03:03:58;3.50;;;1.83;;
65998;SDS011;52766;56.008;37.440;2023-05-07T03:06:24;3.00;;;1.80;;
65998;SDS011;52766;56.008;37.440;2023-05-07T03:08:50;4.75;;;1.65;;
65998;SDS011;52766;56.008;37.440;2023-05-07T03:11:16;3.25;;;1.67;;
65998;SDS011;52766;56.008;37.440;2023-05-07T03:13:45;3.15;;;1.65;;
65998;SDS011;52766;56.008;37.440;2023-05-07T03:16:11;2.35;;;1.33;;
65998;SDS011;52766;56.008;37.440;2023-05-07T03:18:37;3.28;;;1.70;;
65998;SDS011;52766;56.008;37.440;2023-05-07T03:21:03;4.18;;;1.67;;
65998;SDS011;52766;56.008;37.440;2023-05-07T03:23:29;3.17;;;1.38;;
65998;SDS011;52766;56.008;37.440;2023-05-07T03:25:56;4.07;;;1.63;;
65998;SDS011;52766;56.008;37.440;2023-05-07T03:28:22;4.40;;;1.80;;
65998;SDS011;52766;56.008;37.440;2023-05-07T03:30:54;4.10;;;1.30;;
65998;SDS011;52766;56.008;37.440;2023-05-07T03:33:20;4.38;;;1.85;;
65998;SDS011;52766;56.008;37.440;2023-05-07T03:35:48;3.53;;;1.77;;
65998;SDS011;52766;56.008;37.440;2023-05-07T03:38:19;3.83;;;1.67;;
65998;SDS011;52766;56.008;37.440;2023-05-07T03:40:46;2.95;;;1.40;;
65998;SDS011;52766;56.008;37.440;2023-05-07T03:43:12;4.57;;;1.80;;
65998;SDS011;52766;56.008;37.440;2023-05-07T03:45:43;2.35;;;1.33;;
65998;SDS011;52766;56.008;37.440;2023-05-07T03:48:20;4.95;;;1.50;;
65998;SDS011;52766;56.008;37.440;2023-05-07T03:50:47;3.35;;;1.63;;
65998;SDS011;52766;56.008;37.440;2023-05-07T03:53:15;2.15;;;1.25;;
65998;SDS011;52766;56.008;37.440;2023-05-07T03:55:42;2.35;;;1.20;;
65998;SDS011;52766;56.008;37.440;2023-05-07T03:58:09;4.20;;;1.80;;
65998;SDS011;52766;56.008;37.440;2023-05-07T04:00:35;2.00;;;1.30;;
65998;SDS011;52766;56.008;37.440;2023-05-07T04:06:05;5.53;;;1.88;;
65998;SDS011;52766;56.008;37.440;2023-05-07T04:08:35;3.20;;;1.73;;
65998;SDS011;52766;56.008;37.440;2023-05-07T04:11:04;4.22;;;1.83;;
65998;SDS011;52766;56.008;37.440;2023-05-07T04:13:33;1.63;;;1.00;;
65998;SDS011;52766;56.008;37.440;2023-05-07T04:16:02;1.90;;;1.15;;
65998;SDS011;52766;56.008;37.440;2023-05-07T04:18:29;4.35;;;1.60;;
65998;SDS011;52766;56.008;37.440;2023-05-07T04:20:55;3.78;;;1.42;;
65998;SDS011;52766;56.008;37.440;2023-05-07T04:23:25;2.45;;;1.50;;
65998;SDS011;52766;56.008;37.440;2023-05-07T04:25:56;2.15;;;1.15;;
65998;SDS011;52766;56.008;37.440;2023-05-07T04:28:34;6.25;;;3.22;;
65998;SDS011;52766;56.008;37.440;2023-05-07T04:31:06;2.97;;;1.75;;
65998;SDS011;52766;56.008;37.440;2023-05-07T04:33:39;2.83;;;1.40;;
65998;SDS011;52766;56.008;37.440;2023-05-07T04:36:08;2.90;;;1.20;;
65998;SDS011;52766;56.008;37.440;2023-05-07T04:41:50;2.63;;;1.25;;
65998;SDS011;52766;56.008;37.440;2023-05-07T04:44:30;2.95;;;1.40;;
65998;SDS011;52766;56.008;37.440;2023-05-07T04:47:04;1.88;;;1.13;;
65998;SDS011;52766;56.008;37.440;2023-05-07T04:49:42;3.67;;;1.85;;
65998;SDS011;52766;56.008;37.440;2023-05-07T04:52:21;5.25;;;1.38;;
65998;SDS011;52766;56.008;37.440;2023-05-07T04:54:51;4.63;;;1.80;;
65998;SDS011;52766;56.008;37.440;2023-05-07T04:57:21;4.10;;;1.45;;
65998;SDS011;52766;56.008;37.440;2023-05-07T04:59:49;4.38;;;1.95;;
65998;SDS011;52766;56.008;37.440;2023-05-07T05:02:36;3.58;;;1.75;;
65998;SDS011;52766;56.008;37.440;2023-05-07T05:05:03;2.63;;;1.63;;
65998;SDS011;52766;56.008;37.440;2023-05-07T05:07:31;1.42;;;0.90;;
65998;SDS011;52766;56.008;37.440;2023-05-07T05:09:58;2.58;;;1.50;;
65998;SDS011;52766;56.008;37.440;2023-05-07T05:12:34;3.28;;;1.60;;
65998;SDS011;52766;56.008;37.440;2023-05-07T05:15:11;1.48;;;1.23;;
65998;SDS011;52766;56.008;37.440;2023-05-07T05:17:42;3.40;;;1.70;;
65998;SDS011;52766;56.008;37.440;2023-05-07T05:23:19;2.58;;;1.52;;
65998;SDS011;52766;56.008;37.440;2023-05-07T05:26:21;2.15;;;1.20;;
65998;SDS011;52766;56.008;37.440;2023-05-07T05:29:24;3.17;;;1.42;;
65998;SDS011;52766;56.008;37.440;2023-05-07T05:34:29;3.83;;;1.55;;
65998;SDS011;52766;56.008;37.440;2023-05-07T05:37:01;3.42;;;1.42;;
65998;SDS011;52766;56.008;37.440;2023-05-07T05:39:37;4.22;;;1.50;;
65998;SDS011;52766;56.008;37.440;2023-05-07T05:42:09;3.58;;;1.30;;
65998;SDS011;52766;56.008;37.440;2023-05-07T05:44:42;4.82;;;1.40;;
65998;SDS011;52766;56.008;37.440;2023-05-07T05:47:13;3.25;;;1.73;;
65998;SDS011;52766;56.008;37.440;2023-05-07T05:52:59;4.55;;;1.48;;
65998;SDS011;52766;56.008;37.440;2023-05-07T05:55:44;2.33;;;1.33;;
65998;SDS011;52766;56.008;37.440;2023-05-07T05:58:25;1.65;;;0.98;;
65998;SDS011;52766;56.008;37.440;2023-05-07T06:05:18;3.35;;;1.20;;
65998;SDS011;52766;56.008;37.440;2023-05-07T06:08:07;3.33;;;1.58;;
65998;SDS011;52766;56.008;37.440;2023-05-07T06:15:03;2.65;;;1.27;;
65998;SDS011;52766;56.008;37.440;2023-05-07T06:18:45;2.25;;;1.17;;
65998;SDS011;52766;56.008;37.440;2023-05-07T06:21:28;1.75;;;1.13;;
65998;SDS011;52766;56.008;37.440;2023-05-07T06:24:11;3.28;;;1.02;;
65998;SDS011;52766;56.008;37.440;2023-05-07T06:26:51;5.78;;;1.40;;
65998;SDS011;52766;56.008;37.440;2023-05-07T06:29:33;1.92;;;0.85;;
65998;SDS011;52766;56.008;37.440;2023-05-07T06:35:16;2.65;;;1.27;;
65998;SDS011;52766;56.008;37.440;2023-05-07T06:41:29;2.85;;;1.15;;
65998;SDS011;52766;56.008;37.440;2023-05-07T06:48:15;3.55;;;1.27;;
65998;SDS011;52766;56.008;37.440;2023-05-07T06:54:48;2.95;;;1.20;;
65998;SDS011;52766;56.008;37.440;2023-05-07T06:57:43;1.80;;;1.08;;
65998;SDS011;52766;56.008;37.440;2023-05-07T07:00:54;4.72;;;1.55;;
65998;SDS011;52766;56.008;37.440;2023-05-07T07:03:49;2.67;;;1.30;;
65998;SDS011;52766;56.008;37.440;2023-05-07T07:06:29;2.17;;;1.20;;
65998;SDS011;52766;56.008;37.440;2023-05-07T07:20:05;2.92;;;1.30;;
65998;SDS011;52766;56.008;37.440;2023-05-07T07:22:38;3.83;;;1.25;;
65998;SDS011;52766;56.008;37.440;2023-05-07T07:35:16;1.58;;;1.08;;
65998;SDS011;52766;56.008;37.440;2023-05-07T07:38:34;3.58;;;1.10;;
65998;SDS011;52766;56.008;37.440;2023-05-07T07:41:39;1.95;;;1.08;;
65998;SDS011;52766;56.008;37.440;2023-05-07T07:47:45;4.03;;;1.25;;
65998;SDS011;52766;56.008;37.440;2023-05-07T07:50:21;1.60;;;1.05;;
65998;SDS011;52766;56.008;37.440;2023-05-07T07:52:55;2.30;;;1.33;;
65998;SDS011;52766;56.008;37.440;2023-05-07T07:55:25;1.05;;;0.80;;
65998;SDS011;52766;56.008;37.440;2023-05-07T07:58:08;5.85;;;1.38;;
65998;SDS011;52766;56.008;37.440;2023-05-07T08:00:39;2.38;;;0.93;;
65998;SDS011;52766;56.008;37.440;2023-05-07T08:03:14;5.03;;;1.10;;
65998;SDS011;52766;56.008;37.440;2023-05-07T08:05:59;2.80;;;1.50;;
65998;SDS011;52766;56.008;37.440;2023-05-07T08:18:11;1.42;;;0.70;;
65998;SDS011;52766;56.008;37.440;2023-05-07T08:20:57;1.58;;;0.90;;
65998;SDS011;52766;56.008;37.440;2023-05-07T08:35:25;1.23;;;0.80;;
65998;SDS011;52766;56.008;37.440;2023-05-07T08:38:11;1.65;;;0.90;;
65998;SDS011;52766;56.008;37.440;2023-05-07T08:40:45;1.23;;;0.90;;
65998;SDS011;52766;56.008;37.440;2023-05-07T08:44:34;2.33;;;1.30;;
65998;SDS011;52766;56.008;37.440;2023-05-07T08:47:57;3.20;;;1.20;;
65998;SDS011;52766;56.008;37.440;2023-05-07T08:51:55;4.18;;;1.90;;
65998;SDS011;52766;56.008;37.440;2023-05-07T08:54:39;1.80;;;0.98;;
65998;SDS011;52766;56.008;37.440;2023-05-07T08:57:35;2.30;;;1.00;;
65998;SDS011;52766;56.008;37.440;2023-05-07T09:00:18;1.48;;;0.98;;
65998;SDS011;52766;56.008;37.440;2023-05-07T09:09:45;2.05;;;1.10;;
65998;SDS011;52766;56.008;37.440;2023-05-07T09:12:28;2.15;;;1.30;;
65998;SDS011;52766;56.008;37.440;2023-05-07T09:27:24;2.47;;;1.33;;
65998;SDS011;52766;56.008;37.440;2023-05-07T09:29:57;2.80;;;0.98;;
65998;SDS011;52766;56.008;37.440;2023-05-07T09:32:36;3.25;;;1.80;;
65998;SDS011;52766;56.008;37.440;2023-05-07T09:38:30;2.35;;;1.13;;
65998;SDS011;52766;56.008;37.440;2023-05-07T09:41:33;1.58;;;1.00;;
65998;SDS011;52766;56.008;37.440;2023-05-07T09:44:15;2.65;;;1.00;;
65998;SDS011;52766;56.008;37.440;2023-05-07T09:46:49;2.05;;;0.90;;
65998;SDS011;52766;56.008;37.440;2023-05-07T09:52:31;10.35;;;3.05;;
65998;SDS011;52766;56.008;37.440;2023-05-07T09:55:27;1.00;;;0.75;;
65998;SDS011;52766;56.008;37.440;2023-05-07T09:58:11;1.80;;;1.02;;
65998;SDS011;52766;56.008;37.440;2023-05-07T10:05:19;1.20;;;0.80;;
65998;SDS011;52766;56.008;37.440;2023-05-07T10:08:08;3.65;;;0.85;;
65998;SDS011;52766;56.008;37.440;2023-05-07T10:11:23;3.03;;;0.82;;
65998;SDS011;52766;56.008;37.440;2023-05-07T10:14:22;2.30;;;1.10;;
65998;SDS011;52766;56.008;37.440;2023-05-07T10:17:04;4.63;;;1.90;;
65998;SDS011;52766;56.008;37.440;2023-05-07T10:20:20;2.40;;;1.23;;
65998;SDS011;52766;56.008;37.440;2023-05-07T10:23:12;2.08;;;1.20;;
65998;SDS011;52766;56.008;37.440;2023-05-07T10:26:03;3.13;;;1.17;;
65998;SDS011;52766;56.008;37.440;2023-05-07T10:29:21;6.07;;;2.67;;
65998;SDS011;52766;56.008;37.440;2023-05-07T10:38:06;3.90;;;1.67;;
65998;SDS011;52766;56.008;37.440;2023-05-07T10:40:53;1.90;;;1.10;;
65998;SDS011;52766;56.008;37.440;2023-05-07T10:43:23;4.95;;;1.65;;
65998;SDS011;52766;56.008;37.440;2023-05-07T10:46:13;1.98;;;1.33;;
65998;SDS011;52766;56.008;37.440;2023-05-07T10:49:20;4.20;;;1.45;;
65998;SDS011;52766;56.008;37.440;2023-05-07T10:52:13;3.00;;;1.00;;
65998;SDS011;52766;56.008;37.440;2023-05-07T11:02:02;2.08;;;0.93;;
65998;SDS011;52766;56.008;37.440;2023-05-07T11:04:48;2.53;;;1.45;;
65998;SDS011;52766;56.008;37.440;2023-05-07T11:08:09;1.67;;;1.02;;
65998;SDS011;52766;56.008;37.440;2023-05-07T11:10:55;1.90;;;1.02;;
65998;SDS011;52766;56.008;37.440;2023-05-07T11:13:44;1.77;;;1.25;;
65998;SDS011;52766;56.008;37.440;2023-05-07T11:31:32;2.58;;;1.00;;
65998;SDS011;52766;56.008;37.440;2023-05-07T11:34:19;1.23;;;0.82;;
65998;SDS011;52766;56.008;37.440;2023-05-07T11:36:59;0.55;;;0.52;;
65998;SDS011;52766;56.008;37.440;2023-05-07T11:40:09;3.15;;;1.42;;
65998;SDS011;52766;56.008;37.440;2023-05-07T11:42:49;1.92;;;0.90;;
65998;SDS011;52766;56.008;37.440;2023-05-07T11:45:53;8.90;;;2.30;;
65998;SDS011;52766;56.008;37.440;2023-05-07T11:48:55;0.95;;;0.75;;
65998;SDS011;52766;56.008;37.440;2023-05-07T11:52:01;1.75;;;1.10;;
65998;SDS011;52766;56.008;37.440;2023-05-07T11:54:38;3.92;;;0.98;;
65998;SDS011;52766;56.008;37.440;2023-05-07T11:57:45;6.03;;;2.30;;
65998;SDS011;52766;56.008;37.440;2023-05-07T12:00:23;5.75;;;1.60;;
65998;SDS011;52766;56.008;37.440;2023-05-07T12:03:28;2.95;;;1.30;;
65998;SDS011;52766;56.008;37.440;2023-05-07T12:06:10;1.20;;;0.85;;
65998;SDS011;52766;56.008;37.440;2023-05-07T12:08:48;4.38;;;1.55;;
65998;SDS011;52766;56.008;37.440;2023-05-07T12:11:15;4.38;;;1.50;;
65998;SDS011;52766;56.008;37.440;2023-05-07T12:13:50;2.13;;;1.20;;
65998;SDS011;52766;56.008;37.440;2023-05-07T12:16:19;1.65;;;1.00;;
65998;SDS011;52766;56.008;37.440;2023-05-07T12:19:21;4.65;;;1.23;;
65998;SDS011;52766;56.008;37.440;2023-05-07T12:22:02;2.78;;;1.73;;
65998;SDS011;52766;56.008;37.440;2023-05-07T12:28:01;1.42;;;1.13;;
65998;SDS011;52766;56.008;37.440;2023-05-07T12:30:57;2.90;;;1.20;;
65998;SDS011;52766;56.008;37.440;2023-05-07T12:33:28;2.78;;;1.10;;
65998;SDS011;52766;56.008;37.440;2023-05-07T12:36:02;2.28;;;1.55;;
65998;SDS011;52766;56.008;37.440;2023-05-07T12:38:37;2.83;;;1.20;;
65998;SDS011;52766;56.008;37.440;2023-05-07T12:41:04;1.42;;;0.98;;
65998;SDS011;52766;56.008;37.440;2023-05-07T12:44:03;1.50;;;1.10;;
65998;SDS011;52766;56.008;37.440;2023-05-07T12:47:04;1.88;;;0.80;;
65998;SDS011;52766;56.008;37.440;2023-05-07T12:50:02;1.83;;;0.85;;
65998;SDS011;52766;56.008;37.440;2023-05-07T12:52:32;2.50;;;1.05;;
65998;SDS011;52766;56.008;37.440;2023-05-07T12:55:08;1.60;;;1.00;;
65998;SDS011;52766;56.008;37.440;2023-05-07T12:57:39;2.17;;;1.00;;
65998;SDS011;52766;56.008;37.440;2023-05-07T13:03:39;2.45;;;1.17;;
65998;SDS011;52766;56.008;37.440;2023-05-07T13:06:20;2.92;;;1.17;;
65998;SDS011;52766;56.008;37.440;2023-05-07T13:09:04;2.25;;;0.90;;
65998;SDS011;52766;56.008;37.440;2023-05-07T13:11:46;1.08;;;0.63;;
65998;SDS011;52766;56.008;37.440;2023-05-07T13:15:34;0.95;;;0.80;;
65998;SDS011;52766;56.008;37.440;2023-05-07T13:18:15;2.05;;;0.90;;
65998;SDS011;52766;56.008;37.440;2023-05-07T13:20:43;1.15;;;0.88;;
65998;SDS011;52766;56.008;37.440;2023-05-07T13:23:17;2.90;;;1.13;;
65998;SDS011;52766;56.008;37.440;2023-05-07T13:26:21;2.50;;;1.02;;
65998;SDS011;52766;56.008;37.440;2023-05-07T13:28:49;2.83;;;1.30;;
65998;SDS011;52766;56.008;37.440;2023-05-07T13:31:45;3.55;;;1.10;;
65998;SDS011;52766;56.008;37.440;2023-05-07T13:38:33;1.05;;;0.80;;
65998;SDS011;52766;56.008;37.440;2023-05-07T13:46:02;1.45;;;1.10;;
65998;SDS011;52766;56.008;37.440;2023-05-07T13:49:02;2.63;;;1.20;;
65998;SDS011;52766;56.008;37.440;2023-05-07T13:51:39;1.50;;;0.90;;
65998;SDS011;52766;56.008;37.440;2023-05-07T13:54:13;2.38;;;1.10;;
65998;SDS011;52766;56.008;37.440;2023-05-07T13:56:47;1.65;;;0.57;;
65998;SDS011;52766;56.008;37.440;2023-05-07T13:59:49;3.67;;;1.17;;
65998;SDS011;52766;56.008;37.440;2023-05-07T14:02:59;1.95;;;1.15;;
65998;SDS011;52766;56.008;37.440;2023-05-07T14:09:44;3.10;;;1.60;;
65998;SDS011;52766;56.008;37.440;2023-05-07T14:13:17;1.20;;;0.90;;
65998;SDS011;52766;56.008;37.440;2023-05-07T14:18:13;3.42;;;1.58;;
65998;SDS011;52766;56.008;37.440;2023-05-07T14:21:05;1.52;;;1.20;;
65998;SDS011;52766;56.008;37.440;2023-05-07T14:23:36;2.47;;;1.30;;
65998;SDS011;52766;56.008;37.440;2023-05-07T14:29:01;2.08;;;1.17;;
65998;SDS011;52766;56.008;37.440;2023-05-07T14:32:00;3.15;;;1.30;;
65998;SDS011;52766;56.008;37.440;2023-05-07T14:35:23;2.58;;;1.40;;
65998;SDS011;52766;56.008;37.440;2023-05-07T14:38:32;3.28;;;1.35;;
65998;SDS011;52766;56.008;37.440;2023-05-07T14:41:21;2.08;;;1.27;;
65998;SDS011;52766;56.008;37.440;2023-05-07T14:43:58;3.58;;;1.55;;
65998;SDS011;52766;56.008;37.440;2023-05-07T14:50:03;1.83;;;1.10;;
65998;SDS011;52766;56.008;37.440;2023-05-07T14:52:51;1.20;;;0.80;;
65998;SDS011;52766;56.008;37.440;2023-05-07T15:00:03;3.38;;;1.15;;
65998;SDS011;52766;56.008;37.440;2023-05-07T15:02:49;2.22;;;1.27;;
65998;SDS011;52766;56.008;37.440;2023-05-07T15:05:23;2.33;;;1.05;;
65998;SDS011;52766;56.008;37.440;2023-05-07T15:08:11;3.28;;;1.10;;
65998;SDS011;52766;56.008;37.440;2023-05-07T15:11:30;3.15;;;1.10;;
65998;SDS011;52766;56.008;37.440;2023-05-07T15:14:21;2.38;;;1.05;;
65998;SDS011;52766;56.008;37.440;2023-05-07T15:20:10;2.42;;;1.42;;
65998;SDS011;52766;56.008;37.440;2023-05-07T15:24:01;2.63;;;1.30;;
65998;SDS011;52766;56.008;37.440;2023-05-07T15:33:31;2.63;;;1.60;;
65998;SDS011;52766;56.008;37.440;2023-05-07T15:36:48;4.43;;;1.55;;
65998;SDS011;52766;56.008;37.440;2023-05-07T15:42:28;4.03;;;1.58;;
65998;SDS011;52766;56.008;37.440;2023-05-07T15:44:58;3.53;;;1.35;;
65998;SDS011;52766;56.008;37.440;2023-05-07T15:52:09;4.25;;;1.40;;
65998;SDS011;52766;56.008;37.440;2023-05-07T16:14:08;3.40;;;1.42;;
65998;SDS011;52766;56.008;37.440;2023-05-07T16:20:33;5.82;;;1.63;;
65998;SDS011;52766;56.008;37.440;2023-05-07T16:25:58;5.57;;;2.40;;
65998;SDS011;52766;56.008;37.440;2023-05-07T16:29:15;3.65;;;1.80;;
65998;SDS011;52766;56.008;37.440;2023-05-07T16:36:07;8.27;;;3.53;;
65998;SDS011;52766;56.008;37.440;2023-05-07T16:38:39;4.10;;;2.17;;
65998;SDS011;52766;56.008;37.440;2023-05-07T16:41:25;3.97;;;1.67;;
65998;SDS011;52766;56.008;37.440;2023-05-07T16:44:40;1.77;;;1.02;;
65998;SDS011;52766;56.008;37.440;2023-05-07T16:52:10;5.43;;;1.90;;
65998;SDS011;52766;56.008;37.440;2023-05-07T16:55:12;7.05;;;2.63;;
65998;SDS011;52766;56.008;37.440;2023-05-07T16:59:27;9.32;;;2.75;;
65998;SDS011;52766;56.008;37.440;2023-05-07T17:03:25;5.68;;;1.88;;
65998;SDS011;52766;56.008;37.440;2023-05-07T17:06:25;3.03;;;1.58;;
65998;SDS011;52766;56.008;37.440;2023-05-07T17:09:44;6.53;;;2.70;;
65998;SDS011;52766;56.008;37.440;2023-05-07T17:30:53;5.32;;;2.20;;
65998;SDS011;52766;56.008;37.440;2023-05-07T17:33:40;5.30;;;2.35;;
65998;SDS011;52766;56.008;37.440;2023-05-07T17:36:13;4.75;;;2.05;;
65998;SDS011;52766;56.008;37.440;2023-05-07T17:38:47;7.85;;;2.70;;
65998;SDS011;52766;56.008;37.440;2023-05-07T17:51:40;3.58;;;1.85;;
65998;SDS011;52766;56.008;37.440;2023-05-07T17:54:30;7.50;;;2.78;;
65998;SDS011;52766;56.008;37.440;2023-05-07T17:57:51;7.43;;;2.75;;
65998;SDS011;52766;56.008;37.440;2023-05-07T18:04:21;10.00;;;3.85;;
65998;SDS011;52766;56.008;37.440;2023-05-07T18:07:06;11.10;;;4.35;;
65998;SDS011;52766;56.008;37.440;2023-05-07T18:09:49;12.00;;;5.50;;
65998;SDS011;52766;56.008;37.440;2023-05-07T18:12:58;9.60;;;4.10;;
65998;SDS011;52766;56.008;37.440;2023-05-07T18:18:53;7.68;;;4.10;;
65998;SDS011;52766;56.008;37.440;2023-05-07T18:21:32;7.05;;;3.05;;
65998;SDS011;52766;56.008;37.440;2023-05-07T18:24:10;6.32;;;2.00;;
65998;SDS011;52766;56.008;37.440;2023-05-07T18:30:22;7.50;;;2.50;;
65998;SDS011;52766;56.008;37.440;2023-05-07T18:32:57;9.13;;;2.67;;
65998;SDS011;52766;56.008;37.440;2023-05-07T18:35:25;5.68;;;2.30;;
65998;SDS011;52766;56.008;37.440;2023-05-07T18:37:53;12.00;;;2.78;;
65998;SDS011;52766;56.008;37.440;2023-05-07T18:40:21;9.68;;;3.53;;
65998;SDS011;52766;56.008;37.440;2023-05-07T18:43:17;8.07;;;3.10;;
65998;SDS011;52766;56.008;37.440;2023-05-07T18:46:10;9.75;;;2.60;;
65998;SDS011;52766;56.008;37.440;2023-05-07T18:48:42;9.27;;;3.22;;
65998;SDS011;52766;56.008;37.440;2023-05-07T18:51:10;5.50;;;2.65;;
65998;SDS011;52766;56.008;37.440;2023-05-07T18:53:37;6.75;;;2.70;;
65998;SDS011;52766;56.008;37.440;2023-05-07T18:56:11;8.00;;;2.67;;
65998;SDS011;52766;56.008;37.440;2023-05-07T18:58:41;4.70;;;2.35;;
65998;SDS011;52766;56.008;37.440;2023-05-07T19:04:57;9.98;;;3.45;;
65998;SDS011;52766;56.008;37.440;2023-05-07T19:07:28;9.40;;;3.40;;
65998;SDS011;52766;56.008;37.440;2023-05-07T19:10:02;15.38;;;4.47;;
65998;SDS011;52766;56.008;37.440;2023-05-07T19:13:08;9.20;;;3.70;;
65998;SDS011;52766;56.008;37.440;2023-05-07T19:15:54;9.50;;;4.45;;
65998;SDS011;52766;56.008;37.440;2023-05-07T19:18:40;9.63;;;4.43;;
65998;SDS011;52766;56.008;37.440;2023-05-07T19:21:57;10.77;;;4.90;;
65998;SDS011;52766;56.008;37.440;2023-05-07T19:25:13;11.60;;;4.60;;
65998;SDS011;52766;56.008;37.440;2023-05-07T19:28:10;8.40;;;3.78;;
65998;SDS011;52766;56.008;37.440;2023-05-07T19:31:21;10.20;;;4.10;;
65998;SDS011;52766;56.008;37.440;2023-05-07T19:37:15;10.32;;;3.80;;
65998;SDS011;52766;56.008;37.440;2023-05-07T19:43:11;10.35;;;3.97;;
65998;SDS011;52766;56.008;37.440;2023-05-07T19:46:07;6.80;;;3.17;;
65998;SDS011;52766;56.008;37.440;2023-05-07T19:55:02;7.40;;;4.10;;
65998;SDS011;52766;56.008;37.440;2023-05-07T19:57:53;13.13;;;4.72;;
65998;SDS011;52766;56.008;37.440;2023-05-07T20:07:13;11.50;;;4.65;;
65998;SDS011;52766;56.008;37.440;2023-05-07T20:16:32;7.63;;;3.20;;
65998;SDS011;52766;56.008;37.440;2023-05-07T20:19:04;8.82;;;3.38;;
65998;SDS011;52766;56.008;37.440;2023-05-07T20:21:41;8.60;;;3.20;;
65998;SDS011;52766;56.008;37.440;2023-05-07T20:34:28;6.65;;;2.55;;
65998;SDS011;52766;56.008;37.440;2023-05-07T20:37:24;7.25;;;2.78;;
65998;SDS011;52766;56.008;37.440;2023-05-07T20:40:22;5.45;;;2.30;;
65998;SDS011;52766;56.008;37.440;2023-05-07T20:48:59;5.60;;;2.60;;
65998;SDS011;52766;56.008;37.440;2023-05-07T20:51:50;5.93;;;3.17;;
65998;SDS011;52766;56.008;37.440;2023-05-07T20:54:35;5.82;;;2.72;;
65998;SDS011;52766;56.008;37.440;2023-05-07T21:01:02;8.63;;;3.42;;
65998;SDS011;52766;56.008;37.440;2023-05-07T21:03:51;8.20;;;3.40;;
65998;SDS011;52766;56.008;37.440;2023-05-07T21:09:27;9.77;;;3.85;;
65998;SDS011;52766;56.008;37.440;2023-05-07T21:15:53;9.23;;;3.45;;
65998;SDS011;52766;56.008;37.440;2023-05-07T21:18:37;7.78;;;3.42;;